sensor_id;sensor_type;location;lat;lon;timestamp;pressure;altitude;pressure_sealevel;temperature;humidity
76257;BME280;65074;50.436;8.672;2024-01-10T00:00:36;100702.00;;;-7.81;87.73
76257;BME280;65074;50.436;8.672;2024-01-10T00:03:02;100698.47;;;-7.80;87.62
76257;BME280;65074;50.436;8.672;2024-01-10T00:05:28;100700.75;;;-7.76;86.88
76257;BME280;65074;50.436;8.672;2024-01-10T00:07:53;100689.66;;;-7.79;86.70
76257;BME280;65074;50.436;8.672;2024-01-10T00:10:19;100685.47;;;-7.82;87.09
76257;BME280;65074;50.436;8.672;2024-01-10T00:12:44;100683.81;;;-7.83;88.03
76257;BME280;65074;50.436;8.672;2024-01-10T00:15:10;100677.75;;;-7.83;88.04
76257;BME280;65074;50.436;8.672;2024-01-10T00:17:35;100674.31;;;-7.84;88.23
76257;BME280;65074;50.436;8.672;2024-01-10T00:20:01;100669.38;;;-7.88;88.83
76257;BME280;65074;50.436;8.672;2024-01-10T00:22:26;100666.88;;;-7.90;89.19
76257;BME280;65074;50.436;8.672;2024-01-10T00:24:51;100675.09;;;-7.96;89.48
76257;BME280;65074;50.436;8.672;2024-01-10T00:27:17;100669.88;;;-7.96;90.91
76257;BME280;65074;50.436;8.672;2024-01-10T00:29:42;100668.31;;;-7.99;90.97
76257;BME280;65074;50.436;8.672;2024-01-10T00:32:08;100674.19;;;-7.95;91.09
76257;BME280;65074;50.436;8.672;2024-01-10T00:34:33;100666.97;;;-7.92;91.17
76257;BME280;65074;50.436;8.672;2024-01-10T00:36:58;100666.88;;;-7.90;90.70
76257;BME280;65074;50.436;8.672;2024-01-10T00:39:24;100662.47;;;-7.89;90.49
76257;BME280;65074;50.436;8.672;2024-01-10T00:41:49;100659.13;;;-7.92;90.44
76257;BME280;65074;50.436;8.672;2024-01-10T00:44:14;100645.47;;;-7.95;90.47
76257;BME280;65074;50.436;8.672;2024-01-10T00:46:40;100643.88;;;-7.98;91.11
76257;BME280;65074;50.436;8.672;2024-01-10T00:49:05;100640.50;;;-8.00;90.89
76257;BME280;65074;50.436;8.672;2024-01-10T00:51:30;100649.19;;;-7.99;91.15
76257;BME280;65074;50.436;8.672;2024-01-10T00:53:56;100652.84;;;-8.02;91.27
76257;BME280;65074;50.436;8.672;2024-01-10T00:56:21;100645.97;;;-8.03;91.75
76257;BME280;65074;50.436;8.672;2024-01-10T00:58:46;100643.25;;;-8.01;91.52
76257;BME280;65074;50.436;8.672;2024-01-10T01:01:12;100640.63;;;-8.01;91.77
76257;BME280;65074;50.436;8.672;2024-01-10T01:03:37;100639.78;;;-8.02;92.12
76257;BME280;65074;50.436;8.672;2024-01-10T01:06:03;100643.34;;;-8.03;92.41
76257;BME280;65074;50.436;8.672;2024-01-10T01:08:28;100638.94;;;-8.02;92.19
76257;BME280;65074;50.436;8.672;2024-01-10T01:10:53;100639.91;;;-8.03;92.70
76257;BME280;65074;50.436;8.672;2024-01-10T01:13:19;100639.16;;;-8.05;92.61
76257;BME280;65074;50.436;8.672;2024-01-10T01:15:44;100640.09;;;-8.06;92.80
76257;BME280;65074;50.436;8.672;2024-01-10T01:18:10;100642.50;;;-8.03;92.89
76257;BME280;65074;50.436;8.672;2024-01-10T01:20:37;100652.94;;;-8.03;92.20
76257;BME280;65074;50.436;8.672;2024-01-10T01:23:03;100656.19;;;-8.00;91.71
76257;BME280;65074;50.436;8.672;2024-01-10T01:25:28;100647.63;;;-8.02;91.62
76257;BME280;65074;50.436;8.672;2024-01-10T01:27:54;100648.75;;;-8.06;91.45
76257;BME280;65074;50.436;8.672;2024-01-10T01:30:19;100651.25;;;-8.04;91.36
76257;BME280;65074;50.436;8.672;2024-01-10T01:32:47;100651.25;;;-8.04;91.40
76257;BME280;65074;50.436;8.672;2024-01-10T01:35:12;100647.09;;;-8.07;91.69
76257;BME280;65074;50.436;8.672;2024-01-10T01:37:37;100646.34;;;-8.09;91.75
76257;BME280;65074;50.436;8.672;2024-01-10T01:40:03;100640.59;;;-8.14;92.05
76257;BME280;65074;50.436;8.672;2024-01-10T01:42:28;100644.97;;;-8.14;92.16
76257;BME280;65074;50.436;8.672;2024-01-10T01:44:54;100642.47;;;-8.16;92.72
76257;BME280;65074;50.436;8.672;2024-01-10T01:47:19;100643.84;;;-8.10;92.89
76257;BME280;65074;50.436;8.672;2024-01-10T01:49:44;100641.53;;;-8.15;92.47
76257;BME280;65074;50.436;8.672;2024-01-10T01:52:10;100646.97;;;-8.18;92.82
76257;BME280;65074;50.436;8.672;2024-01-10T01:54:35;100640.69;;;-8.15;93.30
76257;BME280;65074;50.436;8.672;2024-01-10T01:57:01;100632.75;;;-8.14;93.51
76257;BME280;65074;50.436;8.672;2024-01-10T01:59:26;100639.75;;;-8.14;93.18
76257;BME280;65074;50.436;8.672;2024-01-10T02:01:54;100637.13;;;-8.14;93.23
76257;BME280;65074;50.436;8.672;2024-01-10T02:04:20;100634.84;;;-8.19;92.62
76257;BME280;65074;50.436;8.672;2024-01-10T02:06:45;100627.66;;;-8.28;92.92
76257;BME280;65074;50.436;8.672;2024-01-10T02:09:10;100631.91;;;-8.27;93.77
76257;BME280;65074;50.436;8.672;2024-01-10T02:11:36;100627.66;;;-8.28;94.03
76257;BME280;65074;50.436;8.672;2024-01-10T02:14:01;100636.41;;;-8.29;94.43
76257;BME280;65074;50.436;8.672;2024-01-10T02:16:27;100643.81;;;-8.23;94.86
76257;BME280;65074;50.436;8.672;2024-01-10T02:18:53;100629.81;;;-8.22;93.38
76257;BME280;65074;50.436;8.672;2024-01-10T02:21:21;100621.91;;;-8.20;94.09
76257;BME280;65074;50.436;8.672;2024-01-10T02:23:47;100622.44;;;-8.15;93.62
76257;BME280;65074;50.436;8.672;2024-01-10T02:26:14;100620.75;;;-8.16;93.90
76257;BME280;65074;50.436;8.672;2024-01-10T02:28:39;100625.78;;;-8.13;93.37
76257;BME280;65074;50.436;8.672;2024-01-10T02:31:05;100622.25;;;-8.12;93.15
76257;BME280;65074;50.436;8.672;2024-01-10T02:33:31;100617.94;;;-8.13;92.89
76257;BME280;65074;50.436;8.672;2024-01-10T02:35:57;100617.22;;;-8.15;92.94
76257;BME280;65074;50.436;8.672;2024-01-10T02:38:22;100612.84;;;-8.15;93.29
76257;BME280;65074;50.436;8.672;2024-01-10T02:40:49;100615.63;;;-8.18;94.23
76257;BME280;65074;50.436;8.672;2024-01-10T02:43:14;100606.31;;;-8.22;94.71
76257;BME280;65074;50.436;8.672;2024-01-10T02:45:39;100608.94;;;-8.22;93.63
76257;BME280;65074;50.436;8.672;2024-01-10T02:48:05;100607.59;;;-8.27;93.75
76257;BME280;65074;50.436;8.672;2024-01-10T02:50:30;100603.63;;;-8.33;94.57
76257;BME280;65074;50.436;8.672;2024-01-10T02:52:56;100603.69;;;-8.34;94.80
76257;BME280;65074;50.436;8.672;2024-01-10T02:55:21;100606.41;;;-8.36;94.85
76257;BME280;65074;50.436;8.672;2024-01-10T02:57:46;100603.94;;;-8.37;95.34
76257;BME280;65074;50.436;8.672;2024-01-10T03:00:12;100597.97;;;-8.39;95.38
76257;BME280;65074;50.436;8.672;2024-01-10T03:02:38;100593.56;;;-8.39;95.92
76257;BME280;65074;50.436;8.672;2024-01-10T03:05:04;100598.25;;;-8.44;96.24
76257;BME280;65074;50.436;8.672;2024-01-10T03:07:29;100608.25;;;-8.50;97.24
76257;BME280;65074;50.436;8.672;2024-01-10T03:09:54;100602.19;;;-8.51;97.53
76257;BME280;65074;50.436;8.672;2024-01-10T03:12:20;100601.47;;;-8.53;97.47
76257;BME280;65074;50.436;8.672;2024-01-10T03:14:45;100598.97;;;-8.54;98.15
76257;BME280;65074;50.436;8.672;2024-01-10T03:17:10;100603.03;;;-8.50;97.94
76257;BME280;65074;50.436;8.672;2024-01-10T03:19:36;100593.31;;;-8.48;98.33
76257;BME280;65074;50.436;8.672;2024-01-10T03:22:07;100590.28;;;-8.55;98.05
76257;BME280;65074;50.436;8.672;2024-01-10T03:24:33;100585.16;;;-8.56;98.97
76257;BME280;65074;50.436;8.672;2024-01-10T03:26:58;100591.13;;;-8.54;98.52
76257;BME280;65074;50.436;8.672;2024-01-10T03:29:23;100587.50;;;-8.52;98.61
76257;BME280;65074;50.436;8.672;2024-01-10T03:31:49;100582.34;;;-8.53;98.67
76257;BME280;65074;50.436;8.672;2024-01-10T03:34:14;100582.28;;;-8.52;99.49
76257;BME280;65074;50.436;8.672;2024-01-10T03:36:42;100581.50;;;-8.54;99.28
76257;BME280;65074;50.436;8.672;2024-01-10T03:39:07;100584.78;;;-8.50;99.46
76257;BME280;65074;50.436;8.672;2024-01-10T03:41:33;100582.91;;;-8.48;99.24
76257;BME280;65074;50.436;8.672;2024-01-10T03:43:58;100577.13;;;-8.53;99.12
76257;BME280;65074;50.436;8.672;2024-01-10T03:46:23;100581.44;;;-8.52;99.27
76257;BME280;65074;50.436;8.672;2024-01-10T03:48:49;100566.91;;;-8.56;99.55
76257;BME280;65074;50.436;8.672;2024-01-10T03:51:18;100572.03;;;-8.55;100.00
76257;BME280;65074;50.436;8.672;2024-01-10T03:53:44;100562.44;;;-8.54;100.00
76257;BME280;65074;50.436;8.672;2024-01-10T03:56:11;100557.97;;;-8.52;100.00
76257;BME280;65074;50.436;8.672;2024-01-10T03:58:36;100565.78;;;-8.52;100.00
76257;BME280;65074;50.436;8.672;2024-01-10T04:01:05;100563.25;;;-8.54;100.00
76257;BME280;65074;50.436;8.672;2024-01-10T04:03:31;100564.00;;;-8.52;100.00
76257;BME280;65074;50.436;8.672;2024-01-10T04:05:57;100567.66;;;-8.54;100.00
76257;BME280;65074;50.436;8.672;2024-01-10T04:08:22;100564.00;;;-8.52;100.00
76257;BME280;65074;50.436;8.672;2024-01-10T04:10:47;100566.63;;;-8.52;100.00
76257;BME280;65074;50.436;8.672;2024-01-10T04:13:13;100564.75;;;-8.50;100.00
76257;BME280;65074;50.436;8.672;2024-01-10T04:15:39;100567.97;;;-8.46;99.78
76257;BME280;65074;50.436;8.672;2024-01-10T04:18:04;100570.88;;;-8.51;99.72
76257;BME280;65074;50.436;8.672;2024-01-10T04:20:30;100573.41;;;-8.49;99.56
76257;BME280;65074;50.436;8.672;2024-01-10T04:22:55;100573.19;;;-8.46;98.76
76257;BME280;65074;50.436;8.672;2024-01-10T04:25:20;100579.06;;;-8.43;98.64
76257;BME280;65074;50.436;8.672;2024-01-10T04:27:46;100569.47;;;-8.42;97.74
76257;BME280;65074;50.436;8.672;2024-01-10T04:30:12;100575.41;;;-8.40;98.05
76257;BME280;65074;50.436;8.672;2024-01-10T04:32:37;100567.59;;;-8.40;98.11
76257;BME280;65074;50.436;8.672;2024-01-10T04:35:03;100568.63;;;-8.43;97.87
76257;BME280;65074;50.436;8.672;2024-01-10T04:37:28;100564.25;;;-8.42;98.02
76257;BME280;65074;50.436;8.672;2024-01-10T04:39:53;100566.94;;;-8.44;98.63
76257;BME280;65074;50.436;8.672;2024-01-10T04:42:19;100569.53;;;-8.44;99.59
76257;BME280;65074;50.436;8.672;2024-01-10T04:44:44;100573.19;;;-8.46;99.56
76257;BME280;65074;50.436;8.672;2024-01-10T04:47:10;100584.47;;;-8.46;99.53
76257;BME280;65074;50.436;8.672;2024-01-10T04:49:35;100581.00;;;-8.46;99.67
76257;BME280;65074;50.436;8.672;2024-01-10T04:52:01;100576.44;;;-8.43;99.00
76257;BME280;65074;50.436;8.672;2024-01-10T04:54:26;100574.38;;;-8.38;98.83
76257;BME280;65074;50.436;8.672;2024-01-10T04:56:52;100569.88;;;-8.36;98.61
76257;BME280;65074;50.436;8.672;2024-01-10T04:59:17;100572.13;;;-8.30;98.15
76257;BME280;65074;50.436;8.672;2024-01-10T05:01:43;100565.22;;;-8.31;97.72
76257;BME280;65074;50.436;8.672;2024-01-10T05:04:08;100570.31;;;-8.29;97.42
76257;BME280;65074;50.436;8.672;2024-01-10T05:06:33;100571.28;;;-8.30;98.04
76257;BME280;65074;50.436;8.672;2024-01-10T05:08:59;100573.03;;;-8.31;98.22
76257;BME280;65074;50.436;8.672;2024-01-10T05:11:25;100568.66;;;-8.30;97.97
76257;BME280;65074;50.436;8.672;2024-01-10T05:13:53;100580.97;;;-8.32;97.92
76257;BME280;65074;50.436;8.672;2024-01-10T05:16:18;100568.13;;;-8.35;98.50
76257;BME280;65074;50.436;8.672;2024-01-10T05:18:44;100580.53;;;-8.39;98.43
76257;BME280;65074;50.436;8.672;2024-01-10T05:21:09;100562.38;;;-8.40;98.63
76257;BME280;65074;50.436;8.672;2024-01-10T05:23:35;100566.13;;;-8.44;98.57
76257;BME280;65074;50.436;8.672;2024-01-10T05:26:00;100562.56;;;-8.43;98.66
76257;BME280;65074;50.436;8.672;2024-01-10T05:28:26;100562.25;;;-8.39;98.60
76257;BME280;65074;50.436;8.672;2024-01-10T05:30:51;100579.47;;;-8.36;98.11
76257;BME280;65074;50.436;8.672;2024-01-10T05:33:16;100558.72;;;-8.38;98.61
76257;BME280;65074;50.436;8.672;2024-01-10T05:35:42;100568.00;;;-8.34;98.09
76257;BME280;65074;50.436;8.672;2024-01-10T05:38:07;100566.25;;;-8.33;98.26
76257;BME280;65074;50.436;8.672;2024-01-10T05:40:32;100561.03;;;-8.33;97.69
76257;BME280;65074;50.436;8.672;2024-01-10T05:42:58;100569.03;;;-8.36;98.05
76257;BME280;65074;50.436;8.672;2024-01-10T05:45:27;100574.38;;;-8.38;98.76
76257;BME280;65074;50.436;8.672;2024-01-10T05:47:53;100577.00;;;-8.38;99.01
76257;BME280;65074;50.436;8.672;2024-01-10T05:50:19;100566.75;;;-8.41;99.69
76257;BME280;65074;50.436;8.672;2024-01-10T05:52:45;100572.16;;;-8.44;99.36
76257;BME280;65074;50.436;8.672;2024-01-10T05:55:10;100577.13;;;-8.53;99.97
76257;BME280;65074;50.436;8.672;2024-01-10T05:57:39;100577.78;;;-8.50;100.00
76257;BME280;65074;50.436;8.672;2024-01-10T06:00:06;100573.78;;;-8.55;100.00
76257;BME280;65074;50.436;8.672;2024-01-10T06:02:38;100564.28;;;-8.56;100.00
76257;BME280;65074;50.436;8.672;2024-01-10T06:05:08;100572.88;;;-8.54;100.00
76257;BME280;65074;50.436;8.672;2024-01-10T06:07:40;100577.25;;;-8.55;100.00
76257;BME280;65074;50.436;8.672;2024-01-10T06:10:08;100574.34;;;-8.50;100.00
76257;BME280;65074;50.436;8.672;2024-01-10T06:12:35;100565.59;;;-8.49;100.00
76257;BME280;65074;50.436;8.672;2024-01-10T06:15:00;100569.78;;;-8.47;100.00
76257;BME280;65074;50.436;8.672;2024-01-10T06:17:25;100562.69;;;-8.45;100.00
76257;BME280;65074;50.436;8.672;2024-01-10T06:19:51;100560.69;;;-8.41;99.78
76257;BME280;65074;50.436;8.672;2024-01-10T06:22:17;100557.88;;;-8.38;99.44
76257;BME280;65074;50.436;8.672;2024-01-10T06:24:43;100556.00;;;-8.36;99.82
76257;BME280;65074;50.436;8.672;2024-01-10T06:27:09;100565.63;;;-8.37;100.00
76257;BME280;65074;50.436;8.672;2024-01-10T06:29:35;100556.00;;;-8.36;99.96
76257;BME280;65074;50.436;8.672;2024-01-10T06:32:02;100555.06;;;-8.35;99.86
76257;BME280;65074;50.436;8.672;2024-01-10T06:34:27;100560.28;;;-8.35;100.00
76257;BME280;65074;50.436;8.672;2024-01-10T06:36:53;100546.28;;;-8.34;100.00
76257;BME280;65074;50.436;8.672;2024-01-10T06:39:18;100557.81;;;-8.37;99.86
76257;BME280;65074;50.436;8.672;2024-01-10T06:41:47;100554.34;;;-8.37;99.57
76257;BME280;65074;50.436;8.672;2024-01-10T06:44:12;100562.06;;;-8.36;99.30
76257;BME280;65074;50.436;8.672;2024-01-10T06:46:37;100564.66;;;-8.36;99.26
76257;BME280;65074;50.436;8.672;2024-01-10T06:49:03;100570.00;;;-8.37;99.64
76257;BME280;65074;50.436;8.672;2024-01-10T06:51:28;100558.72;;;-8.38;98.71
76257;BME280;65074;50.436;8.672;2024-01-10T06:53:54;100569.88;;;-8.36;99.29
76257;BME280;65074;50.436;8.672;2024-01-10T06:56:25;100569.88;;;-8.36;98.94
76257;BME280;65074;50.436;8.672;2024-01-10T06:58:51;100569.03;;;-8.36;99.21
76257;BME280;65074;50.436;8.672;2024-01-10T07:01:16;100565.72;;;-8.38;99.76
76257;BME280;65074;50.436;8.672;2024-01-10T07:03:41;100561.53;;;-8.41;99.73
76257;BME280;65074;50.436;8.672;2024-01-10T07:06:07;100574.38;;;-8.38;100.00
76257;BME280;65074;50.436;8.672;2024-01-10T07:08:32;100568.25;;;-8.37;100.00
76257;BME280;65074;50.436;8.672;2024-01-10T07:10:58;100569.16;;;-8.38;100.00
76257;BME280;65074;50.436;8.672;2024-01-10T07:13:24;100571.03;;;-8.40;100.00
76257;BME280;65074;50.436;8.672;2024-01-10T07:15:49;100573.66;;;-8.40;100.00
76257;BME280;65074;50.436;8.672;2024-01-10T07:18:17;100578.75;;;-8.38;100.00
76257;BME280;65074;50.436;8.672;2024-01-10T07:20:43;100576.88;;;-8.36;100.00
76257;BME280;65074;50.436;8.672;2024-01-10T07:23:08;100591.72;;;-8.37;99.95
76257;BME280;65074;50.436;8.672;2024-01-10T07:25:33;100587.31;;;-8.36;100.00
76257;BME280;65074;50.436;8.672;2024-01-10T07:27:59;100592.44;;;-8.35;100.00
76257;BME280;65074;50.436;8.672;2024-01-10T07:30:24;100599.25;;;-8.32;99.24
76257;BME280;65074;50.436;8.672;2024-01-10T07:32:50;100595.50;;;-8.28;99.61
76257;BME280;65074;50.436;8.672;2024-01-10T07:35:15;100602.25;;;-8.26;99.03
76257;BME280;65074;50.436;8.672;2024-01-10T07:37:41;100599.44;;;-8.23;98.96
76257;BME280;65074;50.436;8.672;2024-01-10T07:40:10;100604.34;;;-8.18;98.58
76257;BME280;65074;50.436;8.672;2024-01-10T07:42:38;100604.25;;;-8.17;98.67
76257;BME280;65074;50.436;8.672;2024-01-10T07:45:05;100603.84;;;-8.11;98.59
76257;BME280;65074;50.436;8.672;2024-01-10T07:47:31;100607.94;;;-8.07;98.25
76257;BME280;65074;50.436;8.672;2024-01-10T07:49:57;100612.84;;;-8.02;98.55
76257;BME280;65074;50.436;8.672;2024-01-10T07:52:23;100611.72;;;-7.98;98.28
76257;BME280;65074;50.436;8.672;2024-01-10T07:54:48;100619.34;;;-7.95;97.97
76257;BME280;65074;50.436;8.672;2024-01-10T07:57:14;100623.31;;;-7.89;97.77
76257;BME280;65074;50.436;8.672;2024-01-10T07:59:39;100616.31;;;-7.89;97.53
76257;BME280;65074;50.436;8.672;2024-01-10T08:02:05;100615.06;;;-7.83;97.76
76257;BME280;65074;50.436;8.672;2024-01-10T08:04:30;100618.31;;;-7.80;97.49
76257;BME280;65074;50.436;8.672;2024-01-10T08:06:56;100618.81;;;-7.75;97.37
76257;BME280;65074;50.436;8.672;2024-01-10T08:09:22;100628.47;;;-7.75;97.31
76257;BME280;65074;50.436;8.672;2024-01-10T08:11:49;100624.50;;;-7.68;97.02
76257;BME280;65074;50.436;8.672;2024-01-10T08:14:14;100625.94;;;-7.64;97.33
76257;BME280;65074;50.436;8.672;2024-01-10T08:16:40;100631.72;;;-7.59;96.86
76257;BME280;65074;50.436;8.672;2024-01-10T08:19:06;100633.06;;;-7.54;96.82
76257;BME280;65074;50.436;8.672;2024-01-10T08:21:31;100631.84;;;-7.48;95.83
76257;BME280;65074;50.436;8.672;2024-01-10T08:23:57;100629.81;;;-7.45;95.31
76257;BME280;65074;50.436;8.672;2024-01-10T08:26:22;100625.03;;;-7.38;94.96
76257;BME280;65074;50.436;8.672;2024-01-10T08:28:48;100631.00;;;-7.36;95.04
76257;BME280;65074;50.436;8.672;2024-01-10T08:31:16;100627.22;;;-7.32;94.15
76257;BME280;65074;50.436;8.672;2024-01-10T08:33:41;100632.84;;;-7.26;93.75
76257;BME280;65074;50.436;8.672;2024-01-10T08:36:07;100636.22;;;-7.23;92.96
76257;BME280;65074;50.436;8.672;2024-01-10T08:38:35;100636.28;;;-7.25;92.28
76257;BME280;65074;50.436;8.672;2024-01-10T08:41:01;100634.72;;;-7.15;92.62
76257;BME280;65074;50.436;8.672;2024-01-10T08:43:26;100630.22;;;-7.13;92.43
76257;BME280;65074;50.436;8.672;2024-01-10T08:45:52;100634.31;;;-7.09;92.28
76257;BME280;65074;50.436;8.672;2024-01-10T08:48:17;100637.31;;;-7.02;91.57
76257;BME280;65074;50.436;8.672;2024-01-10T08:50:43;100640.78;;;-7.02;90.67
76257;BME280;65074;50.436;8.672;2024-01-10T08:53:10;100642.34;;;-6.99;90.86
76257;BME280;65074;50.436;8.672;2024-01-10T08:55:35;100647.47;;;-6.98;90.91
76257;BME280;65074;50.436;8.672;2024-01-10T08:58:02;100641.09;;;-6.94;90.62
76257;BME280;65074;50.436;8.672;2024-01-10T09:00:28;100646.38;;;-6.83;90.30
76257;BME280;65074;50.436;8.672;2024-01-10T09:02:54;100641.38;;;-6.86;89.83
76257;BME280;65074;50.436;8.672;2024-01-10T09:05:20;100646.19;;;-6.80;89.79
76257;BME280;65074;50.436;8.672;2024-01-10T09:07:47;100650.66;;;-6.69;88.59
76257;BME280;65074;50.436;8.672;2024-01-10T09:10:12;100644.31;;;-6.54;88.96
76257;BME280;65074;50.436;8.672;2024-01-10T09:12:38;100652.16;;;-6.54;88.85
76257;BME280;65074;50.436;8.672;2024-01-10T09:15:04;100638.78;;;-6.49;88.25
76257;BME280;65074;50.436;8.672;2024-01-10T09:17:29;100637.38;;;-6.42;87.60
76257;BME280;65074;50.436;8.672;2024-01-10T09:19:54;100635.34;;;-6.39;87.37
76257;BME280;65074;50.436;8.672;2024-01-10T09:22:20;100638.38;;;-6.32;86.68
76257;BME280;65074;50.436;8.672;2024-01-10T09:24:45;100645.28;;;-6.31;86.28
76257;BME280;65074;50.436;8.672;2024-01-10T09:27:11;100638.59;;;-6.35;86.71
76257;BME280;65074;50.436;8.672;2024-01-10T09:29:36;100650.13;;;-6.14;87.06
76257;BME280;65074;50.436;8.672;2024-01-10T09:32:02;100638.03;;;-6.04;86.78
76257;BME280;65074;50.436;8.672;2024-01-10T09:34:28;100632.72;;;-5.80;86.18
76257;BME280;65074;50.436;8.672;2024-01-10T09:36:53;100640.25;;;-5.65;84.81
76257;BME280;65074;50.436;8.672;2024-01-10T09:39:19;100637.53;;;-5.52;83.04
76257;BME280;65074;50.436;8.672;2024-01-10T09:41:48;100644.13;;;-5.47;83.06
76257;BME280;65074;50.436;8.672;2024-01-10T09:44:17;100654.63;;;-5.36;81.93
76257;BME280;65074;50.436;8.672;2024-01-10T09:46:48;100653.31;;;-5.41;81.87
76257;BME280;65074;50.436;8.672;2024-01-10T09:49:16;100664.06;;;-5.22;81.15
76257;BME280;65074;50.436;8.672;2024-01-10T09:51:41;100661.19;;;-5.41;81.29
76257;BME280;65074;50.436;8.672;2024-01-10T09:54:07;100662.69;;;-5.50;82.48
76257;BME280;65074;50.436;8.672;2024-01-10T09:56:32;100662.25;;;-5.33;83.50
76257;BME280;65074;50.436;8.672;2024-01-10T09:58:59;100643.19;;;-5.46;81.14
76257;BME280;65074;50.436;8.672;2024-01-10T10:01:26;100646.53;;;-5.44;81.99
76257;BME280;65074;50.436;8.672;2024-01-10T10:03:53;100651.53;;;-5.41;82.30
76257;BME280;65074;50.436;8.672;2024-01-10T10:06:18;100647.09;;;-5.40;82.91
76257;BME280;65074;50.436;8.672;2024-01-10T10:08:44;100646.16;;;-5.39;81.84
76257;BME280;65074;50.436;8.672;2024-01-10T10:11:13;100643.22;;;-5.23;81.88
76257;BME280;65074;50.436;8.672;2024-01-10T10:13:41;100645.25;;;-5.16;80.58
76257;BME280;65074;50.436;8.672;2024-01-10T10:16:08;100650.13;;;-5.11;82.16
76257;BME280;65074;50.436;8.672;2024-01-10T10:18:39;100641.66;;;-5.15;80.81
76257;BME280;65074;50.436;8.672;2024-01-10T10:21:09;100646.53;;;-5.21;81.05
76257;BME280;65074;50.436;8.672;2024-01-10T10:23:36;100636.28;;;-5.13;82.03
76257;BME280;65074;50.436;8.672;2024-01-10T10:26:16;100638.19;;;-5.04;81.37
76257;BME280;65074;50.436;8.672;2024-01-10T10:28:49;100641.78;;;-5.16;81.57
76257;BME280;65074;50.436;8.672;2024-01-10T10:31:16;100632.84;;;-5.14;81.34
76257;BME280;65074;50.436;8.672;2024-01-10T10:33:42;100640.81;;;-5.15;81.82
76257;BME280;65074;50.436;8.672;2024-01-10T10:36:08;100633.19;;;-5.07;82.17
76257;BME280;65074;50.436;8.672;2024-01-10T10:38:35;100635.44;;;-5.03;81.17
76257;BME280;65074;50.436;8.672;2024-01-10T10:41:04;100636.41;;;-4.93;81.60
76257;BME280;65074;50.436;8.672;2024-01-10T10:43:33;100633.41;;;-4.88;79.79
76257;BME280;65074;50.436;8.672;2024-01-10T10:46:00;100635.00;;;-4.97;80.33
76257;BME280;65074;50.436;8.672;2024-01-10T10:48:28;100626.38;;;-4.88;81.45
76257;BME280;65074;50.436;8.672;2024-01-10T10:53:23;100628.53;;;-4.93;79.60
76257;BME280;65074;50.436;8.672;2024-01-10T10:55:50;100628.53;;;-4.93;80.93
76257;BME280;65074;50.436;8.672;2024-01-10T10:58:17;100627.34;;;-4.78;80.21
76257;BME280;65074;50.436;8.672;2024-01-10T11:00:43;100620.66;;;-4.82;80.29
76257;BME280;65074;50.436;8.672;2024-01-10T11:03:12;100609.31;;;-4.93;80.38
76257;BME280;65074;50.436;8.672;2024-01-10T11:05:40;100616.50;;;-4.95;80.37
76257;BME280;65074;50.436;8.672;2024-01-10T11:08:08;100613.63;;;-4.92;81.00
76257;BME280;65074;50.436;8.672;2024-01-10T11:10:37;100607.88;;;-4.86;81.57
76257;BME280;65074;50.436;8.672;2024-01-10T11:13:24;100609.31;;;-4.93;80.10
76257;BME280;65074;50.436;8.672;2024-01-10T11:15:59;100600.94;;;-4.76;79.68
76257;BME280;65074;50.436;8.672;2024-01-10T11:21:59;100598.97;;;-4.09;77.28
76257;BME280;65074;50.436;8.672;2024-01-10T11:24:26;100596.47;;;-3.90;75.38
76257;BME280;65074;50.436;8.672;2024-01-10T11:27:06;100595.50;;;-3.27;74.30
76257;BME280;65074;50.436;8.672;2024-01-10T11:29:32;100592.09;;;-2.59;71.07
76257;BME280;65074;50.436;8.672;2024-01-10T11:31:57;100593.34;;;-2.63;68.28
76257;BME280;65074;50.436;8.672;2024-01-10T11:34:24;100592.03;;;-2.88;68.67
76257;BME280;65074;50.436;8.672;2024-01-10T11:37:09;100585.53;;;-2.84;68.44
76257;BME280;65074;50.436;8.672;2024-01-10T11:39:35;100587.19;;;-2.92;68.31
76257;BME280;65074;50.436;8.672;2024-01-10T11:42:00;100590.31;;;-3.08;68.64
76257;BME280;65074;50.436;8.672;2024-01-10T11:44:27;100589.88;;;-3.13;68.88
76257;BME280;65074;50.436;8.672;2024-01-10T11:46:54;100587.34;;;-3.24;70.74
76257;BME280;65074;50.436;8.672;2024-01-10T11:49:21;100588.38;;;-3.06;68.18
76257;BME280;65074;50.436;8.672;2024-01-10T11:51:55;100581.28;;;-3.15;68.74
76257;BME280;65074;50.436;8.672;2024-01-10T11:54:41;100580.13;;;-3.52;71.33
76257;BME280;65074;50.436;8.672;2024-01-10T11:57:11;100572.31;;;-3.84;71.97
76257;BME280;65074;50.436;8.672;2024-01-10T11:59:39;100571.94;;;-3.79;73.15
76257;BME280;65074;50.436;8.672;2024-01-10T12:02:06;100566.13;;;-3.83;73.51
76257;BME280;65074;50.436;8.672;2024-01-10T12:04:32;100568.75;;;-3.83;73.67
76257;BME280;65074;50.436;8.672;2024-01-10T12:06:57;100561.03;;;-3.75;74.08
76257;BME280;65074;50.436;8.672;2024-01-10T12:09:23;100570.84;;;-3.26;73.40
76257;BME280;65074;50.436;8.672;2024-01-10T12:11:50;100556.44;;;-2.92;70.48
76257;BME280;65074;50.436;8.672;2024-01-10T12:14:15;100568.09;;;-2.85;69.03
76257;BME280;65074;50.436;8.672;2024-01-10T12:16:41;100563.38;;;-2.81;68.93
76257;BME280;65074;50.436;8.672;2024-01-10T12:19:07;100567.84;;;-2.72;68.86
76257;BME280;65074;50.436;8.672;2024-01-10T12:21:32;100569.97;;;-2.47;68.34
76257;BME280;65074;50.436;8.672;2024-01-10T12:23:57;100567.47;;;-2.10;66.91
76257;BME280;65074;50.436;8.672;2024-01-10T12:26:23;100565.78;;;-2.02;67.47
76257;BME280;65074;50.436;8.672;2024-01-10T12:28:58;100562.22;;;-2.10;67.52
76257;BME280;65074;50.436;8.672;2024-01-10T12:31:27;100563.53;;;-1.68;64.72
76257;BME280;65074;50.436;8.672;2024-01-10T12:33:57;100558.88;;;-1.37;65.41
76257;BME280;65074;50.436;8.672;2024-01-10T12:36:22;100559.41;;;-0.97;65.88
76257;BME280;65074;50.436;8.672;2024-01-10T12:38:48;100555.03;;;-0.61;59.87
76257;BME280;65074;50.436;8.672;2024-01-10T12:41:15;100556.09;;;-0.99;61.48
76257;BME280;65074;50.436;8.672;2024-01-10T12:43:40;100551.59;;;-1.25;62.10
76257;BME280;65074;50.436;8.672;2024-01-10T12:46:12;100551.91;;;-1.84;64.53
76257;BME280;65074;50.436;8.672;2024-01-10T12:48:39;100552.09;;;-2.05;66.44